createdAt,value
2022-08-21T00:01:14.828Z,95060
2022-08-21T00:04:40.092Z,95056
2022-08-21T00:08:05.363Z,95053
2022-08-21T00:11:30.635Z,95053
2022-08-21T00:14:56.959Z,95049
2022-08-21T00:18:21.198Z,95048
2022-08-21T00:21:46.473Z,95048
2022-08-21T00:25:11.749Z,95045
2022-08-21T00:28:36.997Z,95050
2022-08-21T00:32:02.278Z,95045
2022-08-21T00:35:27.548Z,95043
2022-08-21T00:38:52.813Z,95037
2022-08-21T00:42:18.079Z,95043
2022-08-21T00:45:43.335Z,95041
2022-08-21T00:49:08.604Z,95036
2022-08-21T00:52:33.877Z,95029
2022-08-21T00:55:59.172Z,95032
2022-08-21T00:59:24.445Z,95033
2022-08-21T01:02:49.713Z,95034
2022-08-21T01:06:14.987Z,95039
2022-08-21T01:09:40.248Z,95037
2022-08-21T01:13:05.510Z,95037
2022-08-21T01:16:30.784Z,95038
2022-08-21T01:19:56.084Z,95034
2022-08-21T01:23:21.359Z,95040
2022-08-21T01:26:46.651Z,95039
2022-08-21T01:30:11.924Z,95044
2022-08-21T01:33:37.184Z,95050
2022-08-21T01:37:02.459Z,95046
2022-08-21T01:40:27.736Z,95038
2022-08-21T01:43:52.981Z,95030
2022-08-21T01:47:18.307Z,95029
2022-08-21T01:50:43.517Z,95033
2022-08-21T01:54:08.778Z,95034
2022-08-21T01:57:34.039Z,95034
2022-08-21T02:00:59.334Z,95039
2022-08-21T02:04:24.576Z,95035
2022-08-21T02:07:49.853Z,95037
2022-08-21T02:11:15.129Z,95037
2022-08-21T02:14:40.417Z,95033
2022-08-21T02:18:05.682Z,95027
2022-08-21T02:21:30.977Z,95029
2022-08-21T02:24:56.264Z,95033
2022-08-21T02:28:21.525Z,95029
2022-08-21T02:31:46.791Z,95028
2022-08-21T02:35:12.061Z,95032
2022-08-21T02:38:37.315Z,95031
2022-08-21T02:42:02.599Z,95029
2022-08-21T02:45:27.863Z,95031
2022-08-21T02:48:53.140Z,95027
2022-08-21T02:52:18.406Z,95022
2022-08-21T02:55:43.666Z,95022
2022-08-21T02:59:08.937Z,95030
2022-08-21T03:02:34.205Z,95025
2022-08-21T03:05:59.481Z,95024
2022-08-21T03:09:24.745Z,95021
2022-08-21T03:12:50.003Z,95015
2022-08-21T03:16:15.281Z,95015
2022-08-21T03:19:40.575Z,95013
2022-08-21T03:23:07.674Z,95012
2022-08-21T03:26:31.128Z,95008
2022-08-21T03:29:56.410Z,95017
2022-08-21T03:33:23.213Z,95018
2022-08-21T03:36:46.945Z,95019
2022-08-21T03:40:12.285Z,95025
2022-08-21T03:43:37.475Z,95026
2022-08-21T03:47:02.740Z,95028
2022-08-21T03:50:28.016Z,95031
2022-08-21T03:53:53.278Z,95028
2022-08-21T03:57:18.560Z,95027
2022-08-21T04:00:43.849Z,95025
2022-08-21T04:04:09.098Z,95022
2022-08-21T04:07:34.392Z,95026
2022-08-21T04:10:59.662Z,95030
2022-08-21T04:14:24.928Z,95032
2022-08-21T04:17:50.210Z,95040
2022-08-21T04:21:15.507Z,95046
2022-08-21T04:24:40.795Z,95046
2022-08-21T04:28:06.045Z,95048
2022-08-21T04:31:31.313Z,95043
2022-08-21T04:34:56.573Z,95048
2022-08-21T04:38:21.839Z,95053
2022-08-21T04:41:47.107Z,95059
2022-08-21T04:45:12.377Z,95061
2022-08-21T04:48:37.660Z,95055
2022-08-21T04:52:02.928Z,95055
2022-08-21T04:55:28.235Z,95061
2022-08-21T04:58:53.506Z,95061
2022-08-21T05:02:18.793Z,95058
2022-08-21T05:05:44.068Z,95056
2022-08-21T05:09:09.338Z,95061
2022-08-21T05:12:34.610Z,95064
2022-08-21T05:15:59.881Z,95068
2022-08-21T05:19:25.122Z,95070
2022-08-21T05:22:50.399Z,95067
2022-08-21T05:26:18.023Z,95072
2022-08-21T05:29:41.021Z,95077
2022-08-21T05:33:06.278Z,95075
2022-08-21T05:36:31.549Z,95080
2022-08-21T05:40:04.439Z,95086
2022-08-21T05:43:22.131Z,95088
2022-08-21T05:46:47.413Z,95083
2022-08-21T05:50:12.746Z,95085
2022-08-21T05:53:38.091Z,95078
2022-08-21T05:57:03.331Z,95083
2022-08-21T06:00:28.685Z,95080
2022-08-21T06:03:53.874Z,95078
2022-08-21T06:07:19.122Z,95082
2022-08-21T06:10:44.395Z,95081
2022-08-21T06:14:09.732Z,95079
2022-08-21T06:17:35.207Z,95080
2022-08-21T06:21:00.916Z,95079
2022-08-21T06:24:25.811Z,95087
2022-08-21T06:27:51.126Z,95089
2022-08-21T06:31:16.416Z,95093
2022-08-21T06:34:41.753Z,95092
2022-08-21T06:38:07.046Z,95090
2022-08-21T06:41:32.349Z,95094
2022-08-21T06:44:58.010Z,95095
2022-08-21T06:48:23.255Z,95093
2022-08-21T06:51:48.570Z,95096
2022-08-21T06:55:13.991Z,95089
2022-08-21T06:58:39.309Z,95091
2022-08-21T07:02:04.584Z,95095
2022-08-21T07:05:29.846Z,95095
2022-08-21T07:08:55.105Z,95089
2022-08-21T07:12:20.578Z,95092
2022-08-21T07:15:45.878Z,95091
2022-08-21T07:19:11.143Z,95086
2022-08-21T07:22:36.421Z,95084
2022-08-21T07:26:01.691Z,95079
2022-08-21T07:29:26.886Z,95076
2022-08-21T07:32:52.212Z,95075
2022-08-21T07:36:17.420Z,95080
2022-08-21T07:39:42.763Z,95076
2022-08-21T07:43:07.899Z,95080
2022-08-21T07:46:33.137Z,95082
2022-08-21T07:49:58.423Z,95074
2022-08-21T07:53:23.682Z,95075
2022-08-21T07:56:48.988Z,95070
2022-08-21T08:00:14.261Z,95069
2022-08-21T08:03:39.498Z,95071
2022-08-21T08:07:04.728Z,95064
2022-08-21T08:10:29.996Z,95068
2022-08-21T08:13:55.234Z,95069
2022-08-21T08:17:20.466Z,95069
2022-08-21T08:20:45.726Z,95068
2022-08-21T08:24:14.333Z,95067
2022-08-21T08:27:36.206Z,95069
2022-08-21T08:31:01.471Z,95071
2022-08-21T08:34:26.736Z,95069
2022-08-21T08:37:52.415Z,95069
2022-08-21T08:41:17.265Z,95064
2022-08-21T08:44:42.540Z,95064
2022-08-21T08:48:14.015Z,95065
2022-08-21T08:51:33.099Z,95063
2022-08-21T08:54:58.382Z,95062
2022-08-21T08:58:23.658Z,95066
2022-08-21T09:01:50.838Z,95065
2022-08-21T09:05:16.317Z,95071
2022-08-21T09:08:41.786Z,95064
2022-08-21T09:12:07.385Z,95067
2022-08-21T09:15:33.338Z,95064
2022-08-21T09:18:59.993Z,95053
2022-08-21T09:22:25.205Z,95058
2022-08-21T09:25:50.434Z,95060
2022-08-21T09:29:15.715Z,95059
2022-08-21T09:32:41.206Z,95062
2022-08-21T09:36:06.474Z,95064
2022-08-21T09:39:31.748Z,95062
2022-08-21T09:42:57.019Z,95065
2022-08-21T09:46:22.202Z,95064
2022-08-21T09:49:47.466Z,95059
2022-08-21T09:53:12.678Z,95064
2022-08-21T09:56:37.899Z,95056
2022-08-21T10:00:03.193Z,95062
2022-08-21T10:03:28.449Z,95054
2022-08-21T10:06:54.680Z,95054
2022-08-21T10:10:18.963Z,95052
2022-08-21T10:13:44.197Z,95051
2022-08-21T10:17:09.423Z,95035
2022-08-21T10:20:34.942Z,95040
2022-08-21T10:24:00.316Z,95038
2022-08-21T10:27:25.802Z,95036
2022-08-21T10:30:51.284Z,95041
2022-08-21T10:34:18.105Z,95041
2022-08-21T10:37:46.760Z,95040
2022-08-21T10:41:12.059Z,95042
2022-08-21T10:44:37.324Z,95034
2022-08-21T10:48:02.638Z,95032
2022-08-21T10:51:29.272Z,95030
2022-08-21T10:54:53.221Z,95022
2022-08-21T10:58:18.509Z,95026
2022-08-21T11:01:43.780Z,95017
2022-08-21T11:05:09.050Z,95025
2022-08-21T11:08:34.314Z,95029
2022-08-21T11:12:08.749Z,95024
2022-08-21T11:15:28.853Z,95022
2022-08-21T11:18:50.743Z,95018
2022-08-21T11:22:15.977Z,95013
2022-08-21T11:25:41.247Z,95008
2022-08-21T11:29:06.521Z,95008
2022-08-21T11:32:31.736Z,95016
2022-08-21T11:35:57.068Z,95009
2022-08-21T11:39:22.711Z,95007
2022-08-21T11:42:48.183Z,94997
2022-08-21T11:46:13.476Z,94998
2022-08-21T11:49:39.035Z,94988
2022-08-21T11:53:04.303Z,94987
2022-08-21T11:56:29.524Z,94987
2022-08-21T11:59:54.773Z,94986
2022-08-21T12:03:20.018Z,94988
2022-08-21T12:06:45.300Z,94981
2022-08-21T12:10:10.583Z,94980
2022-08-21T12:13:36.822Z,94983
2022-08-21T12:17:01.149Z,94978
2022-08-21T12:20:27.002Z,94970
2022-08-21T12:23:52.278Z,94971
2022-08-21T12:27:17.680Z,94974
2022-08-21T12:30:43.840Z,94968
2022-08-21T12:34:09.179Z,94968
2022-08-21T12:37:34.468Z,94963
2022-08-21T12:40:59.755Z,94964
2022-08-21T12:44:25.037Z,94961
2022-08-21T12:47:50.344Z,94960
2022-08-21T12:51:15.597Z,94963
2022-08-21T12:54:41.681Z,94962
2022-08-21T12:58:06.953Z,94957
2022-08-21T13:01:32.326Z,94956
2022-08-21T13:04:57.514Z,94954
2022-08-21T13:08:22.812Z,94960
2022-08-21T13:11:48.079Z,94957
2022-08-21T13:15:13.355Z,94957
2022-08-21T13:18:38.644Z,94958
2022-08-21T13:22:03.927Z,94959
2022-08-21T13:25:29.193Z,94953
2022-08-21T13:28:54.462Z,94953
2022-08-21T13:32:19.750Z,94952
2022-08-21T13:35:45.038Z,94949
2022-08-21T13:39:10.306Z,94946
2022-08-21T13:42:35.592Z,94947
2022-08-21T13:46:00.873Z,94949
2022-08-21T13:49:26.145Z,94942
2022-08-21T13:52:51.458Z,94946
2022-08-21T13:56:16.726Z,94936
2022-08-21T13:59:41.969Z,94940
2022-08-21T14:03:07.275Z,94945
2022-08-21T14:06:33.691Z,94952
2022-08-21T14:09:58.966Z,94951
2022-08-21T14:13:24.247Z,94947
2022-08-21T14:16:52.532Z,94946
2022-08-21T14:20:17.794Z,94945
2022-08-21T14:23:43.090Z,94946
2022-08-21T14:27:08.392Z,94937
2022-08-21T15:06:07.404Z,94933
2022-08-21T15:09:32.652Z,94924
2022-08-21T15:12:58.005Z,94923
2022-08-21T15:16:23.236Z,94925
2022-08-21T15:19:48.543Z,94927
2022-08-21T15:23:15.023Z,94927
2022-08-21T15:26:39.127Z,94925
2022-08-21T15:30:04.457Z,94924
2022-08-21T15:33:29.744Z,94927
2022-08-21T15:36:56.253Z,94924
2022-08-21T15:40:20.389Z,94921
2022-08-21T15:43:45.650Z,94917
2022-08-21T15:47:10.959Z,94917
2022-08-21T15:50:36.285Z,94916
2022-08-21T15:54:01.577Z,94909
2022-08-21T15:57:26.863Z,94912
2022-08-21T16:00:52.155Z,94903
2022-08-21T16:04:17.497Z,94903
2022-08-21T16:07:42.841Z,94902
2022-08-21T16:11:08.139Z,94904
2022-08-21T16:14:33.437Z,94905
2022-08-21T16:17:58.766Z,94899
2022-08-21T16:21:24.088Z,94904
2022-08-21T16:24:49.426Z,94898
2022-08-21T16:28:14.816Z,94896
2022-08-21T16:31:40.259Z,94898
2022-08-21T16:35:05.633Z,94901
2022-08-21T16:38:31.144Z,94899
2022-08-21T16:41:56.554Z,94898
2022-08-21T16:45:21.902Z,94899
2022-08-21T16:48:47.247Z,94903
2022-08-21T16:52:12.569Z,94900
2022-08-21T16:55:37.877Z,94899
2022-08-21T16:59:03.193Z,94902
2022-08-21T17:02:28.514Z,94905
2022-08-21T17:05:53.821Z,94902
2022-08-21T17:09:19.133Z,94905
2022-08-21T17:12:52.244Z,94900
2022-08-21T17:16:17.552Z,94901
2022-08-21T17:19:42.879Z,94898
2022-08-21T17:23:08.181Z,94905
2022-08-21T17:26:33.516Z,94903
2022-08-21T17:29:58.860Z,94906
2022-08-21T17:33:24.191Z,94907
2022-08-21T17:36:49.506Z,94912
2022-08-21T17:40:14.977Z,94914
2022-08-21T17:43:40.304Z,94911
2022-08-21T17:47:05.679Z,94921
2022-08-21T17:50:31.027Z,94923
2022-08-21T17:53:56.360Z,94922
2022-08-21T17:57:22.402Z,94923
2022-08-21T18:00:47.220Z,94921
2022-08-21T18:04:12.643Z,94930
2022-08-21T18:07:37.969Z,94934
2022-08-21T18:11:03.344Z,94926
2022-08-21T18:14:28.770Z,94930
2022-08-21T18:17:54.166Z,94925
2022-08-21T18:21:19.495Z,94931
2022-08-21T18:24:45.329Z,94929
2022-08-21T18:28:10.656Z,94937
2022-08-21T18:31:36.004Z,94930
2022-08-21T18:35:01.309Z,94945
2022-08-21T18:38:26.655Z,94942
2022-08-21T18:41:51.995Z,94944
2022-08-21T18:45:17.326Z,94952
2022-08-21T18:48:42.738Z,94958
2022-08-21T18:52:08.032Z,94962
2022-08-21T18:55:33.426Z,94959
2022-08-21T18:58:58.804Z,94961
2022-08-21T19:02:24.202Z,94966
2022-08-21T19:05:49.496Z,94966
2022-08-21T19:09:14.859Z,94968
2022-08-21T19:12:40.157Z,94969
2022-08-21T19:16:05.516Z,94968
2022-08-21T19:19:30.764Z,94976
2022-08-21T19:22:56.429Z,94973
2022-08-21T19:26:21.288Z,94973
2022-08-21T19:29:46.553Z,94972
2022-08-21T19:33:11.801Z,94973
2022-08-21T19:36:37.076Z,94970
2022-08-21T19:40:02.375Z,94975
2022-08-21T19:43:29.253Z,94977
2022-08-21T19:46:52.873Z,94975
2022-08-21T19:50:21.186Z,94975
2022-08-21T19:53:43.394Z,94979
2022-08-21T19:57:08.693Z,94978
2022-08-21T20:00:33.974Z,94980
2022-08-21T20:03:59.208Z,94983
2022-08-21T20:07:25.073Z,94975
2022-08-21T20:10:49.858Z,94985
2022-08-21T20:14:15.005Z,94981
2022-08-21T20:17:40.275Z,94982
2022-08-21T20:21:05.531Z,94984
2022-08-21T20:24:30.782Z,94985
2022-08-21T20:27:56.051Z,94989
2022-08-21T20:31:21.296Z,94983
2022-08-21T20:34:46.561Z,94984
2022-08-21T20:38:11.818Z,94987
2022-08-21T20:41:37.073Z,94988
2022-08-21T20:45:02.637Z,94984
2022-08-21T20:48:27.597Z,94991
2022-08-21T20:51:52.860Z,94991
2022-08-21T20:55:18.111Z,94989
2022-08-21T20:58:43.402Z,94993
2022-08-21T21:02:10.967Z,94992
2022-08-21T21:05:33.916Z,94988
2022-08-21T21:08:59.185Z,94991
2022-08-21T21:12:27.808Z,94981
2022-08-21T21:15:50.502Z,94982
2022-08-21T21:19:14.967Z,94984
2022-08-21T21:22:40.228Z,94981
2022-08-21T21:26:05.913Z,94987
2022-08-21T21:29:30.745Z,94985
2022-08-21T21:32:56.060Z,94992
2022-08-21T21:36:21.271Z,94988
2022-08-21T21:39:46.574Z,94991
2022-08-21T21:43:11.777Z,94994
2022-08-21T21:46:37.045Z,94993
2022-08-21T21:50:02.304Z,94994
2022-08-21T21:53:27.553Z,94994
2022-08-21T21:56:52.822Z,94992
2022-08-21T22:00:18.073Z,94993
2022-08-21T22:03:43.323Z,94997
2022-08-21T22:07:08.627Z,94997
2022-08-21T22:10:33.901Z,95002
2022-08-21T22:13:59.167Z,95003
2022-08-21T22:17:24.440Z,95007
2022-08-21T22:20:49.694Z,95004
2022-08-21T22:24:14.941Z,95007
2022-08-21T22:27:40.216Z,95010
2022-08-21T22:31:05.477Z,95008
2022-08-21T22:34:30.744Z,95007
2022-08-21T22:37:56.014Z,95008
2022-08-21T22:41:21.264Z,95008
2022-08-21T22:44:46.516Z,95008
2022-08-21T22:48:14.642Z,95007
2022-08-21T22:51:37.030Z,95007
2022-08-21T22:55:02.295Z,95009
2022-08-21T22:58:27.554Z,95011
2022-08-21T23:01:52.833Z,95009
2022-08-21T23:05:18.095Z,95010
2022-08-21T23:08:44.166Z,95007
2022-08-21T23:12:14.265Z,95006
2022-08-21T23:15:33.888Z,95001
2022-08-21T23:18:59.132Z,94999
2022-08-21T23:22:28.220Z,95000
2022-08-21T23:25:49.672Z,94996
2022-08-21T23:29:24.706Z,94996
2022-08-21T23:32:40.729Z,94994
2022-08-21T23:36:05.432Z,94994
2022-08-21T23:39:30.693Z,94994
2022-08-21T23:42:55.955Z,95002
2022-08-21T23:46:21.223Z,95003
2022-08-21T23:49:46.490Z,95007
2022-08-21T23:53:11.742Z,95005
2022-08-21T23:56:37.016Z,95007
